sensor_id;sensor_type;location;lat;lon;timestamp;P1;durP1;ratioP1;P2;durP2;ratioP2
25810;SDS011;13645;52.460;13.910;2023-06-22T00:02:15;24.67;;;20.05;;
25810;SDS011;13645;52.460;13.910;2023-06-22T00:04:42;27.20;;;18.02;;
25810;SDS011;13645;52.460;13.910;2023-06-22T00:07:10;18.25;;;16.35;;
25810;SDS011;13645;52.460;13.910;2023-06-22T00:09:36;18.52;;;15.48;;
25810;SDS011;13645;52.460;13.910;2023-06-22T00:12:06;15.70;;;13.98;;
25810;SDS011;13645;52.460;13.910;2023-06-22T00:14:42;15.52;;;13.38;;
25810;SDS011;13645;52.460;13.910;2023-06-22T00:17:11;16.38;;;14.68;;
25810;SDS011;13645;52.460;13.910;2023-06-22T00:19:40;17.33;;;15.52;;
25810;SDS011;13645;52.460;13.910;2023-06-22T00:22:06;17.88;;;14.60;;
25810;SDS011;13645;52.460;13.910;2023-06-22T00:24:36;17.45;;;14.70;;
25810;SDS011;13645;52.460;13.910;2023-06-22T00:27:03;18.38;;;14.85;;
25810;SDS011;13645;52.460;13.910;2023-06-22T00:29:31;16.35;;;14.75;;
25810;SDS011;13645;52.460;13.910;2023-06-22T00:31:58;18.38;;;15.35;;
25810;SDS011;13645;52.460;13.910;2023-06-22T00:34:27;17.50;;;15.68;;
25810;SDS011;13645;52.460;13.910;2023-06-22T00:36:54;16.88;;;15.10;;
25810;SDS011;13645;52.460;13.910;2023-06-22T00:39:21;16.58;;;14.88;;
25810;SDS011;13645;52.460;13.910;2023-06-22T00:41:49;16.75;;;15.02;;
25810;SDS011;13645;52.460;13.910;2023-06-22T00:44:16;18.40;;;15.02;;
25810;SDS011;13645;52.460;13.910;2023-06-22T00:46:45;16.45;;;14.75;;
25810;SDS011;13645;52.460;13.910;2023-06-22T00:49:14;17.17;;;15.38;;
25810;SDS011;13645;52.460;13.910;2023-06-22T00:51:50;17.45;;;15.07;;
25810;SDS011;13645;52.460;13.910;2023-06-22T00:54:25;17.83;;;15.93;;
25810;SDS011;13645;52.460;13.910;2023-06-22T00:57:00;19.45;;;15.80;;
25810;SDS011;13645;52.460;13.910;2023-06-22T00:59:29;18.63;;;16.23;;
25810;SDS011;13645;52.460;13.910;2023-06-22T01:01:56;18.73;;;15.65;;
25810;SDS011;13645;52.460;13.910;2023-06-22T01:04:24;16.88;;;15.20;;
25810;SDS011;13645;52.460;13.910;2023-06-22T01:07:06;18.98;;;15.50;;
25810;SDS011;13645;52.460;13.910;2023-06-22T01:09:39;17.85;;;16.05;;
25810;SDS011;13645;52.460;13.910;2023-06-22T01:12:30;18.08;;;15.32;;
25810;SDS011;13645;52.460;13.910;2023-06-22T01:15:49;17.45;;;14.68;;
25810;SDS011;13645;52.460;13.910;2023-06-22T01:17:51;16.52;;;14.88;;
25810;SDS011;13645;52.460;13.910;2023-06-22T01:20:20;16.77;;;15.00;;
25810;SDS011;13645;52.460;13.910;2023-06-22T01:25:48;16.65;;;14.93;;
25810;SDS011;13645;52.460;13.910;2023-06-22T01:31:09;15.18;;;13.57;;
25810;SDS011;13645;52.460;13.910;2023-06-22T01:33:39;15.52;;;14.02;;
25810;SDS011;13645;52.460;13.910;2023-06-22T01:36:08;20.50;;;14.88;;
25810;SDS011;13645;52.460;13.910;2023-06-22T01:38:39;15.65;;;13.93;;
25810;SDS011;13645;52.460;13.910;2023-06-22T01:41:07;15.07;;;13.57;;
25810;SDS011;13645;52.460;13.910;2023-06-22T01:43:34;20.65;;;14.75;;
25810;SDS011;13645;52.460;13.910;2023-06-22T01:46:04;16.77;;;14.32;;
25810;SDS011;13645;52.460;13.910;2023-06-22T01:48:33;16.30;;;13.50;;
25810;SDS011;13645;52.460;13.910;2023-06-22T01:51:00;14.25;;;12.85;;
25810;SDS011;13645;52.460;13.910;2023-06-22T01:53:28;16.95;;;13.20;;
25810;SDS011;13645;52.460;13.910;2023-06-22T01:55:55;14.57;;;13.00;;
25810;SDS011;13645;52.460;13.910;2023-06-22T01:58:26;17.08;;;13.63;;
25810;SDS011;13645;52.460;13.910;2023-06-22T02:01:07;15.48;;;12.75;;
25810;SDS011;13645;52.460;13.910;2023-06-22T02:03:38;16.20;;;13.73;;
25810;SDS011;13645;52.460;13.910;2023-06-22T02:06:23;15.82;;;13.98;;
25810;SDS011;13645;52.460;13.910;2023-06-22T02:08:57;14.48;;;12.98;;
25810;SDS011;13645;52.460;13.910;2023-06-22T02:11:27;15.77;;;14.07;;
25810;SDS011;13645;52.460;13.910;2023-06-22T02:13:57;15.55;;;13.90;;
25810;SDS011;13645;52.460;13.910;2023-06-22T02:16:27;15.50;;;13.75;;
25810;SDS011;13645;52.460;13.910;2023-06-22T02:19:01;15.32;;;13.73;;
25810;SDS011;13645;52.460;13.910;2023-06-22T02:21:33;15.45;;;13.95;;
25810;SDS011;13645;52.460;13.910;2023-06-22T02:24:00;16.40;;;14.73;;
25810;SDS011;13645;52.460;13.910;2023-06-22T02:26:30;17.27;;;14.70;;
25810;SDS011;13645;52.460;13.910;2023-06-22T02:28:59;17.13;;;15.32;;
25810;SDS011;13645;52.460;13.910;2023-06-22T02:31:26;15.77;;;14.07;;
25810;SDS011;13645;52.460;13.910;2023-06-22T02:33:59;17.10;;;13.95;;
25810;SDS011;13645;52.460;13.910;2023-06-22T02:36:37;17.55;;;14.73;;
25810;SDS011;13645;52.460;13.910;2023-06-22T02:39:05;18.20;;;15.38;;
25810;SDS011;13645;52.460;13.910;2023-06-22T02:41:35;18.45;;;14.70;;
25810;SDS011;13645;52.460;13.910;2023-06-22T02:44:02;20.83;;;15.10;;
25810;SDS011;13645;52.460;13.910;2023-06-22T02:46:31;15.93;;;14.23;;
25810;SDS011;13645;52.460;13.910;2023-06-22T02:48:58;17.10;;;13.65;;
25810;SDS011;13645;52.460;13.910;2023-06-22T02:51:25;15.73;;;13.73;;
25810;SDS011;13645;52.460;13.910;2023-06-22T02:53:54;14.50;;;12.30;;
25810;SDS011;13645;52.460;13.910;2023-06-22T02:56:29;15.23;;;12.90;;
25810;SDS011;13645;52.460;13.910;2023-06-22T02:58:59;17.70;;;13.75;;
25810;SDS011;13645;52.460;13.910;2023-06-22T03:01:41;19.17;;;14.40;;
25810;SDS011;13645;52.460;13.910;2023-06-22T03:04:17;17.33;;;13.23;;
25810;SDS011;13645;52.460;13.910;2023-06-22T03:06:44;15.07;;;13.13;;
25810;SDS011;13645;52.460;13.910;2023-06-22T03:09:24;15.68;;;12.43;;
25810;SDS011;13645;52.460;13.910;2023-06-22T03:11:54;16.70;;;14.15;;
25810;SDS011;13645;52.460;13.910;2023-06-22T03:14:26;18.58;;;14.27;;
25810;SDS011;13645;52.460;13.910;2023-06-22T03:16:53;23.88;;;15.23;;
25810;SDS011;13645;52.460;13.910;2023-06-22T03:19:20;19.33;;;14.25;;
25810;SDS011;13645;52.460;13.910;2023-06-22T03:21:50;16.25;;;14.55;;
25810;SDS011;13645;52.460;13.910;2023-06-22T03:24:28;17.33;;;14.90;;
25810;SDS011;13645;52.460;13.910;2023-06-22T03:27:01;22.33;;;15.13;;
25810;SDS011;13645;52.460;13.910;2023-06-22T03:29:33;17.92;;;14.15;;
25810;SDS011;13645;52.460;13.910;2023-06-22T03:32:03;15.02;;;12.90;;
25810;SDS011;13645;52.460;13.910;2023-06-22T03:34:32;18.80;;;13.27;;
25810;SDS011;13645;52.460;13.910;2023-06-22T03:37:02;18.30;;;14.35;;
25810;SDS011;13645;52.460;13.910;2023-06-22T03:39:32;16.45;;;13.50;;
25810;SDS011;13645;52.460;13.910;2023-06-22T03:41:59;15.15;;;12.63;;
25810;SDS011;13645;52.460;13.910;2023-06-22T03:44:26;14.95;;;13.45;;
25810;SDS011;13645;52.460;13.910;2023-06-22T03:46:53;12.55;;;11.23;;
25810;SDS011;13645;52.460;13.910;2023-06-22T03:49:20;16.05;;;12.77;;
25810;SDS011;13645;52.460;13.910;2023-06-22T03:51:47;13.80;;;12.38;;
25810;SDS011;13645;52.460;13.910;2023-06-22T03:54:14;14.15;;;12.75;;
25810;SDS011;13645;52.460;13.910;2023-06-22T03:56:40;15.23;;;13.50;;
25810;SDS011;13645;52.460;13.910;2023-06-22T03:59:08;15.57;;;13.27;;
25810;SDS011;13645;52.460;13.910;2023-06-22T04:01:37;18.65;;;13.85;;
25810;SDS011;13645;52.460;13.910;2023-06-22T04:04:04;15.93;;;14.00;;
25810;SDS011;13645;52.460;13.910;2023-06-22T04:06:32;17.45;;;13.75;;
25810;SDS011;13645;52.460;13.910;2023-06-22T04:09:01;17.20;;;14.00;;
25810;SDS011;13645;52.460;13.910;2023-06-22T04:11:28;16.08;;;14.35;;
25810;SDS011;13645;52.460;13.910;2023-06-22T04:13:55;16.10;;;13.20;;
25810;SDS011;13645;52.460;13.910;2023-06-22T04:16:22;16.10;;;14.38;;
25810;SDS011;13645;52.460;13.910;2023-06-22T04:18:49;14.65;;;13.10;;
25810;SDS011;13645;52.460;13.910;2023-06-22T04:21:16;17.05;;;13.90;;
25810;SDS011;13645;52.460;13.910;2023-06-22T04:23:46;17.38;;;13.82;;
25810;SDS011;13645;52.460;13.910;2023-06-22T04:26:17;15.27;;;13.30;;
25810;SDS011;13645;52.460;13.910;2023-06-22T04:28:49;15.05;;;12.45;;
25810;SDS011;13645;52.460;13.910;2023-06-22T04:31:18;16.52;;;13.50;;
25810;SDS011;13645;52.460;13.910;2023-06-22T04:33:45;18.67;;;13.93;;
25810;SDS011;13645;52.460;13.910;2023-06-22T04:36:12;18.08;;;14.23;;
25810;SDS011;13645;52.460;13.910;2023-06-22T04:38:39;15.30;;;13.70;;
25810;SDS011;13645;52.460;13.910;2023-06-22T04:41:06;18.83;;;13.15;;
25810;SDS011;13645;52.460;13.910;2023-06-22T04:43:35;16.70;;;12.10;;
25810;SDS011;13645;52.460;13.910;2023-06-22T04:46:02;19.45;;;12.45;;
25810;SDS011;13645;52.460;13.910;2023-06-22T04:48:30;15.48;;;12.38;;
25810;SDS011;13645;52.460;13.910;2023-06-22T04:51:00;13.80;;;11.93;;
25810;SDS011;13645;52.460;13.910;2023-06-22T04:53:30;12.75;;;10.55;;
25810;SDS011;13645;52.460;13.910;2023-06-22T04:55:57;18.00;;;11.48;;
25810;SDS011;13645;52.460;13.910;2023-06-22T04:58:24;14.23;;;11.10;;
25810;SDS011;13645;52.460;13.910;2023-06-22T05:00:54;15.65;;;12.13;;
25810;SDS011;13645;52.460;13.910;2023-06-22T05:03:24;16.35;;;12.68;;
25810;SDS011;13645;52.460;13.910;2023-06-22T05:05:52;15.63;;;12.07;;
25810;SDS011;13645;52.460;13.910;2023-06-22T05:08:20;16.98;;;12.60;;
25810;SDS011;13645;52.460;13.910;2023-06-22T05:10:46;13.80;;;12.25;;
25810;SDS011;13645;52.460;13.910;2023-06-22T05:13:20;15.32;;;11.68;;
25810;SDS011;13645;52.460;13.910;2023-06-22T05:18:42;12.80;;;11.45;;
25810;SDS011;13645;52.460;13.910;2023-06-22T05:21:10;14.23;;;10.32;;
25810;SDS011;13645;52.460;13.910;2023-06-22T05:23:36;12.23;;;10.20;;
25810;SDS011;13645;52.460;13.910;2023-06-22T05:26:03;11.07;;;9.68;;
25810;SDS011;13645;52.460;13.910;2023-06-22T05:28:30;10.48;;;9.35;;
25810;SDS011;13645;52.460;13.910;2023-06-22T05:30:57;10.48;;;8.07;;
25810;SDS011;13645;52.460;13.910;2023-06-22T05:33:24;13.98;;;8.68;;
25810;SDS011;13645;52.460;13.910;2023-06-22T05:35:50;11.82;;;7.85;;
25810;SDS011;13645;52.460;13.910;2023-06-22T05:38:17;8.75;;;6.93;;
25810;SDS011;13645;52.460;13.910;2023-06-22T05:40:44;11.50;;;6.40;;
25810;SDS011;13645;52.460;13.910;2023-06-22T05:43:11;10.85;;;6.72;;
25810;SDS011;13645;52.460;13.910;2023-06-22T05:45:38;8.75;;;6.18;;
25810;SDS011;13645;52.460;13.910;2023-06-22T05:48:04;12.90;;;8.75;;
25810;SDS011;13645;52.460;13.910;2023-06-22T05:50:32;8.35;;;6.38;;
25810;SDS011;13645;52.460;13.910;2023-06-22T05:52:59;15.38;;;8.25;;
25810;SDS011;13645;52.460;13.910;2023-06-22T05:55:26;9.70;;;6.50;;
25810;SDS011;13645;52.460;13.910;2023-06-22T05:57:52;14.38;;;6.65;;
25810;SDS011;13645;52.460;13.910;2023-06-22T06:00:19;8.35;;;5.47;;
25810;SDS011;13645;52.460;13.910;2023-06-22T06:02:47;9.68;;;6.35;;
25810;SDS011;13645;52.460;13.910;2023-06-22T06:05:15;6.60;;;5.55;;
25810;SDS011;13645;52.460;13.910;2023-06-22T06:07:42;7.22;;;5.40;;
25810;SDS011;13645;52.460;13.910;2023-06-22T06:10:09;10.93;;;5.63;;
25810;SDS011;13645;52.460;13.910;2023-06-22T06:12:36;8.15;;;5.45;;
25810;SDS011;13645;52.460;13.910;2023-06-22T06:15:03;11.52;;;5.30;;
25810;SDS011;13645;52.460;13.910;2023-06-22T06:17:32;7.57;;;4.82;;
25810;SDS011;13645;52.460;13.910;2023-06-22T06:19:59;7.68;;;4.93;;
25810;SDS011;13645;52.460;13.910;2023-06-22T06:22:26;5.38;;;4.63;;
25810;SDS011;13645;52.460;13.910;2023-06-22T06:24:53;6.38;;;4.05;;
25810;SDS011;13645;52.460;13.910;2023-06-22T06:27:20;7.82;;;4.75;;
25810;SDS011;13645;52.460;13.910;2023-06-22T06:29:47;10.60;;;5.05;;
25810;SDS011;13645;52.460;13.910;2023-06-22T06:32:14;5.95;;;4.63;;
25810;SDS011;13645;52.460;13.910;2023-06-22T06:34:42;10.18;;;4.82;;
25810;SDS011;13645;52.460;13.910;2023-06-22T06:37:09;20.00;;;15.50;;
25810;SDS011;13645;52.460;13.910;2023-06-22T06:39:36;7.28;;;5.18;;
25810;SDS011;13645;52.460;13.910;2023-06-22T06:42:04;12.60;;;6.60;;
25810;SDS011;13645;52.460;13.910;2023-06-22T06:44:31;7.65;;;4.78;;
25810;SDS011;13645;52.460;13.910;2023-06-22T06:46:58;9.88;;;4.22;;
25810;SDS011;13645;52.460;13.910;2023-06-22T06:49:25;20.50;;;5.15;;
25810;SDS011;13645;52.460;13.910;2023-06-22T06:51:52;8.13;;;4.10;;
25810;SDS011;13645;52.460;13.910;2023-06-22T06:54:18;8.20;;;3.80;;
25810;SDS011;13645;52.460;13.910;2023-06-22T06:56:47;13.65;;;4.03;;
25810;SDS011;13645;52.460;13.910;2023-06-22T06:59:14;6.53;;;3.50;;
25810;SDS011;13645;52.460;13.910;2023-06-22T07:01:41;4.70;;;3.40;;
25810;SDS011;13645;52.460;13.910;2023-06-22T07:04:11;8.10;;;3.70;;
25810;SDS011;13645;52.460;13.910;2023-06-22T07:06:37;26.80;;;4.35;;
25810;SDS011;13645;52.460;13.910;2023-06-22T07:09:05;30.60;;;4.20;;
25810;SDS011;13645;52.460;13.910;2023-06-22T07:11:32;6.18;;;3.70;;
25810;SDS011;13645;52.460;13.910;2023-06-22T07:13:59;15.20;;;3.58;;
25810;SDS011;13645;52.460;13.910;2023-06-22T07:16:27;8.60;;;6.57;;
25810;SDS011;13645;52.460;13.910;2023-06-22T07:18:56;18.92;;;13.75;;
25810;SDS011;13645;52.460;13.910;2023-06-22T07:21:25;11.82;;;7.80;;
25810;SDS011;13645;52.460;13.910;2023-06-22T07:23:52;8.27;;;4.78;;
25810;SDS011;13645;52.460;13.910;2023-06-22T07:26:29;23.75;;;4.78;;
25810;SDS011;13645;52.460;13.910;2023-06-22T07:28:56;5.60;;;3.30;;
25810;SDS011;13645;52.460;13.910;2023-06-22T07:31:25;7.70;;;3.47;;
25810;SDS011;13645;52.460;13.910;2023-06-22T07:33:52;9.43;;;3.45;;
25810;SDS011;13645;52.460;13.910;2023-06-22T07:36:19;4.50;;;3.42;;
25810;SDS011;13645;52.460;13.910;2023-06-22T07:38:46;6.63;;;3.92;;
25810;SDS011;13645;52.460;13.910;2023-06-22T07:41:13;5.65;;;3.45;;
25810;SDS011;13645;52.460;13.910;2023-06-22T07:43:40;9.55;;;3.38;;
25810;SDS011;13645;52.460;13.910;2023-06-22T07:46:07;5.18;;;3.30;;
25810;SDS011;13645;52.460;13.910;2023-06-22T07:48:36;5.47;;;3.20;;
25810;SDS011;13645;52.460;13.910;2023-06-22T07:51:04;4.32;;;3.10;;
25810;SDS011;13645;52.460;13.910;2023-06-22T07:53:32;7.03;;;3.17;;
25810;SDS011;13645;52.460;13.910;2023-06-22T07:55:59;4.45;;;3.00;;
25810;SDS011;13645;52.460;13.910;2023-06-22T07:58:26;6.85;;;3.17;;
25810;SDS011;13645;52.460;13.910;2023-06-22T08:00:52;9.18;;;2.88;;
25810;SDS011;13645;52.460;13.910;2023-06-22T08:03:19;8.38;;;2.63;;
25810;SDS011;13645;52.460;13.910;2023-06-22T08:05:46;4.55;;;2.67;;
25810;SDS011;13645;52.460;13.910;2023-06-22T08:08:15;3.90;;;2.53;;
25810;SDS011;13645;52.460;13.910;2023-06-22T08:10:42;4.32;;;2.88;;
25810;SDS011;13645;52.460;13.910;2023-06-22T08:13:09;4.80;;;2.35;;
25810;SDS011;13645;52.460;13.910;2023-06-22T08:15:36;3.38;;;2.47;;
25810;SDS011;13645;52.460;13.910;2023-06-22T08:18:03;5.90;;;2.40;;
25810;SDS011;13645;52.460;13.910;2023-06-22T08:20:30;4.10;;;2.42;;
25810;SDS011;13645;52.460;13.910;2023-06-22T08:22:57;3.35;;;2.42;;
25810;SDS011;13645;52.460;13.910;2023-06-22T08:25:26;3.97;;;2.28;;
25810;SDS011;13645;52.460;13.910;2023-06-22T08:27:54;2.20;;;1.90;;
25810;SDS011;13645;52.460;13.910;2023-06-22T08:30:20;3.90;;;2.17;;
25810;SDS011;13645;52.460;13.910;2023-06-22T08:32:47;3.28;;;2.30;;
25810;SDS011;13645;52.460;13.910;2023-06-22T08:35:14;6.55;;;2.30;;
25810;SDS011;13645;52.460;13.910;2023-06-22T08:37:41;3.70;;;2.42;;
25810;SDS011;13645;52.460;13.910;2023-06-22T08:40:08;6.43;;;2.38;;
25810;SDS011;13645;52.460;13.910;2023-06-22T08:42:37;2.78;;;2.38;;
25810;SDS011;13645;52.460;13.910;2023-06-22T08:45:04;3.55;;;2.22;;
25810;SDS011;13645;52.460;13.910;2023-06-22T08:47:32;3.20;;;2.42;;
25810;SDS011;13645;52.460;13.910;2023-06-22T08:49:59;2.70;;;2.20;;
25810;SDS011;13645;52.460;13.910;2023-06-22T08:52:28;3.03;;;2.25;;
25810;SDS011;13645;52.460;13.910;2023-06-22T08:54:55;3.85;;;2.42;;
25810;SDS011;13645;52.460;13.910;2023-06-22T08:57:24;3.30;;;2.30;;
25810;SDS011;13645;52.460;13.910;2023-06-22T08:59:51;2.50;;;2.10;;
25810;SDS011;13645;52.460;13.910;2023-06-22T09:02:25;4.15;;;1.95;;
25810;SDS011;13645;52.460;13.910;2023-06-22T09:04:59;5.80;;;2.13;;
25810;SDS011;13645;52.460;13.910;2023-06-22T09:07:29;4.70;;;2.10;;
25810;SDS011;13645;52.460;13.910;2023-06-22T09:09:56;3.10;;;2.17;;
25810;SDS011;13645;52.460;13.910;2023-06-22T09:12:23;3.33;;;2.10;;
25810;SDS011;13645;52.460;13.910;2023-06-22T09:14:52;10.70;;;2.47;;
25810;SDS011;13645;52.460;13.910;2023-06-22T09:17:19;4.32;;;2.20;;
25810;SDS011;13645;52.460;13.910;2023-06-22T09:19:46;3.65;;;2.05;;
25810;SDS011;13645;52.460;13.910;2023-06-22T09:22:14;3.60;;;2.45;;
25810;SDS011;13645;52.460;13.910;2023-06-22T09:24:41;3.53;;;2.30;;
25810;SDS011;13645;52.460;13.910;2023-06-22T09:27:07;5.10;;;2.40;;
25810;SDS011;13645;52.460;13.910;2023-06-22T09:29:34;4.72;;;2.25;;
25810;SDS011;13645;52.460;13.910;2023-06-22T09:32:01;4.53;;;2.10;;
25810;SDS011;13645;52.460;13.910;2023-06-22T09:34:29;3.38;;;2.10;;
25810;SDS011;13645;52.460;13.910;2023-06-22T09:36:57;4.50;;;1.85;;
25810;SDS011;13645;52.460;13.910;2023-06-22T09:39:26;3.40;;;2.17;;
25810;SDS011;13645;52.460;13.910;2023-06-22T09:41:53;5.85;;;2.50;;
25810;SDS011;13645;52.460;13.910;2023-06-22T09:44:20;14.63;;;11.55;;
25810;SDS011;13645;52.460;13.910;2023-06-22T09:46:47;7.53;;;3.85;;
25810;SDS011;13645;52.460;13.910;2023-06-22T09:49:14;3.40;;;2.33;;
25810;SDS011;13645;52.460;13.910;2023-06-22T09:51:40;3.38;;;1.90;;
25810;SDS011;13645;52.460;13.910;2023-06-22T09:54:07;3.15;;;1.98;;
25810;SDS011;13645;52.460;13.910;2023-06-22T09:56:34;2.83;;;2.20;;
25810;SDS011;13645;52.460;13.910;2023-06-22T09:59:04;4.20;;;2.20;;
25810;SDS011;13645;52.460;13.910;2023-06-22T10:01:43;3.85;;;2.00;;
25810;SDS011;13645;52.460;13.910;2023-06-22T10:04:10;4.03;;;2.35;;
25810;SDS011;13645;52.460;13.910;2023-06-22T10:06:37;3.38;;;2.13;;
25810;SDS011;13645;52.460;13.910;2023-06-22T10:09:07;2.60;;;2.10;;
25810;SDS011;13645;52.460;13.910;2023-06-22T10:11:34;3.72;;;2.25;;
25810;SDS011;13645;52.460;13.910;2023-06-22T10:14:02;4.63;;;2.10;;
25810;SDS011;13645;52.460;13.910;2023-06-22T10:16:31;3.30;;;1.95;;
25810;SDS011;13645;52.460;13.910;2023-06-22T10:19:00;6.15;;;2.47;;
25810;SDS011;13645;52.460;13.910;2023-06-22T10:21:27;5.55;;;2.47;;
25810;SDS011;13645;52.460;13.910;2023-06-22T10:23:55;3.78;;;2.50;;
25810;SDS011;13645;52.460;13.910;2023-06-22T10:26:22;3.03;;;2.25;;
25810;SDS011;13645;52.460;13.910;2023-06-22T10:28:49;5.15;;;2.47;;
25810;SDS011;13645;52.460;13.910;2023-06-22T10:31:32;3.83;;;2.10;;
25810;SDS011;13645;52.460;13.910;2023-06-22T10:34:00;4.43;;;2.47;;
25810;SDS011;13645;52.460;13.910;2023-06-22T10:36:26;3.55;;;2.38;;
25810;SDS011;13645;52.460;13.910;2023-06-22T10:38:54;2.80;;;2.13;;
25810;SDS011;13645;52.460;13.910;2023-06-22T10:41:21;5.70;;;2.58;;
25810;SDS011;13645;52.460;13.910;2023-06-22T10:43:48;4.05;;;2.70;;
25810;SDS011;13645;52.460;13.910;2023-06-22T10:46:15;7.97;;;2.42;;
25810;SDS011;13645;52.460;13.910;2023-06-22T10:48:42;3.35;;;2.30;;
25810;SDS011;13645;52.460;13.910;2023-06-22T10:51:09;3.78;;;2.10;;
25810;SDS011;13645;52.460;13.910;2023-06-22T10:53:36;5.63;;;2.20;;
25810;SDS011;13645;52.460;13.910;2023-06-22T10:56:03;8.20;;;5.43;;
25810;SDS011;13645;52.460;13.910;2023-06-22T10:58:30;3.60;;;2.30;;
25810;SDS011;13645;52.460;13.910;2023-06-22T11:00:56;15.93;;;12.23;;
25810;SDS011;13645;52.460;13.910;2023-06-22T11:03:25;7.68;;;2.70;;
25810;SDS011;13645;52.460;13.910;2023-06-22T11:05:52;6.35;;;2.33;;
25810;SDS011;13645;52.460;13.910;2023-06-22T11:08:19;5.18;;;2.20;;
25810;SDS011;13645;52.460;13.910;2023-06-22T11:10:46;3.85;;;2.35;;
25810;SDS011;13645;52.460;13.910;2023-06-22T11:13:14;6.63;;;2.60;;
25810;SDS011;13645;52.460;13.910;2023-06-22T11:15:41;4.63;;;2.20;;
25810;SDS011;13645;52.460;13.910;2023-06-22T11:18:08;3.70;;;2.53;;
25810;SDS011;13645;52.460;13.910;2023-06-22T11:20:35;3.13;;;2.58;;
25810;SDS011;13645;52.460;13.910;2023-06-22T11:23:05;3.70;;;2.25;;
25810;SDS011;13645;52.460;13.910;2023-06-22T11:25:35;8.25;;;2.42;;
25810;SDS011;13645;52.460;13.910;2023-06-22T11:28:04;6.63;;;2.50;;
25810;SDS011;13645;52.460;13.910;2023-06-22T11:30:31;4.00;;;2.22;;
25810;SDS011;13645;52.460;13.910;2023-06-22T11:32:58;5.32;;;2.60;;
25810;SDS011;13645;52.460;13.910;2023-06-22T11:35:25;3.28;;;2.63;;
25810;SDS011;13645;52.460;13.910;2023-06-22T11:37:52;3.08;;;2.47;;
25810;SDS011;13645;52.460;13.910;2023-06-22T11:40:19;4.28;;;2.30;;
25810;SDS011;13645;52.460;13.910;2023-06-22T11:42:46;3.40;;;2.30;;
25810;SDS011;13645;52.460;13.910;2023-06-22T11:45:12;3.97;;;2.70;;
25810;SDS011;13645;52.460;13.910;2023-06-22T11:47:39;5.32;;;2.22;;
25810;SDS011;13645;52.460;13.910;2023-06-22T11:50:06;6.22;;;2.45;;
25810;SDS011;13645;52.460;13.910;2023-06-22T11:52:36;2.75;;;2.40;;
25810;SDS011;13645;52.460;13.910;2023-06-22T11:55:03;3.92;;;2.40;;
25810;SDS011;13645;52.460;13.910;2023-06-22T11:57:38;7.45;;;2.45;;
25810;SDS011;13645;52.460;13.910;2023-06-22T12:00:19;3.17;;;2.35;;
25810;SDS011;13645;52.460;13.910;2023-06-22T12:02:46;2.67;;;2.45;;
25810;SDS011;13645;52.460;13.910;2023-06-22T12:05:13;2.95;;;2.63;;
25810;SDS011;13645;52.460;13.910;2023-06-22T12:07:40;3.65;;;3.00;;
25810;SDS011;13645;52.460;13.910;2023-06-22T12:10:07;2.95;;;2.47;;
25810;SDS011;13645;52.460;13.910;2023-06-22T12:12:50;6.10;;;2.65;;
25810;SDS011;13645;52.460;13.910;2023-06-22T12:15:17;7.75;;;5.15;;
25810;SDS011;13645;52.460;13.910;2023-06-22T12:17:45;4.25;;;3.72;;
25810;SDS011;13645;52.460;13.910;2023-06-22T12:20:12;3.47;;;2.92;;
25810;SDS011;13645;52.460;13.910;2023-06-22T12:22:40;5.63;;;3.15;;
25810;SDS011;13645;52.460;13.910;2023-06-22T12:25:07;4.93;;;2.60;;
25810;SDS011;13645;52.460;13.910;2023-06-22T12:27:35;4.50;;;3.00;;
25810;SDS011;13645;52.460;13.910;2023-06-22T12:30:04;6.53;;;2.97;;
25810;SDS011;13645;52.460;13.910;2023-06-22T12:32:32;3.03;;;2.70;;
25810;SDS011;13645;52.460;13.910;2023-06-22T12:34:59;3.83;;;2.65;;
25810;SDS011;13645;52.460;13.910;2023-06-22T12:37:28;3.28;;;2.63;;
25810;SDS011;13645;52.460;13.910;2023-06-22T12:39:59;5.93;;;2.63;;
25810;SDS011;13645;52.460;13.910;2023-06-22T12:42:31;11.10;;;8.77;;
25810;SDS011;13645;52.460;13.910;2023-06-22T12:44:57;11.93;;;8.77;;
25810;SDS011;13645;52.460;13.910;2023-06-22T12:47:25;5.10;;;3.40;;
25810;SDS011;13645;52.460;13.910;2023-06-22T12:49:56;4.97;;;2.83;;
25810;SDS011;13645;52.460;13.910;2023-06-22T12:56:13;5.03;;;2.80;;
25810;SDS011;13645;52.460;13.910;2023-06-22T12:58:40;4.50;;;2.95;;
25810;SDS011;13645;52.460;13.910;2023-06-22T13:01:06;4.38;;;2.97;;
25810;SDS011;13645;52.460;13.910;2023-06-22T13:03:35;3.00;;;2.70;;
25810;SDS011;13645;52.460;13.910;2023-06-22T13:06:43;4.65;;;3.03;;
25810;SDS011;13645;52.460;13.910;2023-06-22T13:09:17;3.95;;;2.88;;
25810;SDS011;13645;52.460;13.910;2023-06-22T13:11:47;2.90;;;2.38;;
25810;SDS011;13645;52.460;13.910;2023-06-22T13:14:14;3.65;;;2.85;;
25810;SDS011;13645;52.460;13.910;2023-06-22T13:16:42;3.30;;;2.63;;
25810;SDS011;13645;52.460;13.910;2023-06-22T13:19:09;5.72;;;2.95;;
25810;SDS011;13645;52.460;13.910;2023-06-22T13:21:36;6.45;;;3.05;;
25810;SDS011;13645;52.460;13.910;2023-06-22T13:24:03;5.10;;;2.75;;
25810;SDS011;13645;52.460;13.910;2023-06-22T13:26:32;3.95;;;3.03;;
25810;SDS011;13645;52.460;13.910;2023-06-22T13:28:59;3.65;;;2.97;;
25810;SDS011;13645;52.460;13.910;2023-06-22T13:31:26;3.45;;;3.15;;
25810;SDS011;13645;52.460;13.910;2023-06-22T13:33:53;3.33;;;2.97;;
25810;SDS011;13645;52.460;13.910;2023-06-22T13:36:20;3.40;;;3.00;;
25810;SDS011;13645;52.460;13.910;2023-06-22T13:38:49;5.05;;;2.55;;
25810;SDS011;13645;52.460;13.910;2023-06-22T13:41:16;5.72;;;3.10;;
25810;SDS011;13645;52.460;13.910;2023-06-22T13:43:43;7.80;;;2.83;;
25810;SDS011;13645;52.460;13.910;2023-06-22T13:46:10;4.05;;;3.00;;
25810;SDS011;13645;52.460;13.910;2023-06-22T13:48:37;3.35;;;2.97;;
25810;SDS011;13645;52.460;13.910;2023-06-22T13:51:03;5.00;;;2.80;;
25810;SDS011;13645;52.460;13.910;2023-06-22T13:53:30;5.13;;;3.22;;
25810;SDS011;13645;52.460;13.910;2023-06-22T13:55:57;4.65;;;2.80;;
25810;SDS011;13645;52.460;13.910;2023-06-22T13:58:24;3.17;;;2.88;;
25810;SDS011;13645;52.460;13.910;2023-06-22T14:00:51;4.45;;;3.10;;
25810;SDS011;13645;52.460;13.910;2023-06-22T14:03:21;7.13;;;3.53;;
25810;SDS011;13645;52.460;13.910;2023-06-22T14:05:48;4.60;;;3.00;;
25810;SDS011;13645;52.460;13.910;2023-06-22T14:09:01;5.25;;;3.05;;
25810;SDS011;13645;52.460;13.910;2023-06-22T14:11:49;3.58;;;3.13;;
25810;SDS011;13645;52.460;13.910;2023-06-22T14:14:16;3.95;;;2.70;;
25810;SDS011;13645;52.460;13.910;2023-06-22T14:16:43;4.35;;;3.00;;
25810;SDS011;13645;52.460;13.910;2023-06-22T14:19:10;3.28;;;2.80;;
25810;SDS011;13645;52.460;13.910;2023-06-22T14:21:39;5.43;;;3.15;;
25810;SDS011;13645;52.460;13.910;2023-06-22T14:24:07;4.53;;;3.10;;
25810;SDS011;13645;52.460;13.910;2023-06-22T14:26:34;3.97;;;3.00;;
25810;SDS011;13645;52.460;13.910;2023-06-22T14:29:01;10.82;;;3.50;;
25810;SDS011;13645;52.460;13.910;2023-06-22T14:31:27;5.05;;;3.33;;
25810;SDS011;13645;52.460;13.910;2023-06-22T14:33:54;7.28;;;2.97;;
25810;SDS011;13645;52.460;13.910;2023-06-22T14:36:21;3.50;;;3.20;;
25810;SDS011;13645;52.460;13.910;2023-06-22T14:38:48;3.70;;;3.30;;
25810;SDS011;13645;52.460;13.910;2023-06-22T14:41:15;4.20;;;3.20;;
25810;SDS011;13645;52.460;13.910;2023-06-22T14:43:44;6.20;;;3.25;;
25810;SDS011;13645;52.460;13.910;2023-06-22T14:46:15;3.90;;;3.30;;